createdAt,value
2023-01-01T00:00:34.226Z,71.88
2023-01-01T00:05:38.701Z,66.47
2023-01-01T00:10:40.031Z,65.13
2023-01-01T00:15:41.512Z,78.13
2023-01-01T00:20:42.899Z,77.80
2023-01-01T00:25:44.452Z,89.05
2023-01-01T00:30:45.840Z,106.50
2023-01-01T00:35:47.217Z,98.05
2023-01-01T00:40:48.613Z,95.10
2023-01-01T00:45:52.832Z,87.57
2023-01-01T00:50:54.480Z,87.78
2023-01-01T00:55:56.449Z,89.53
2023-01-01T01:00:57.992Z,83.50
2023-01-01T01:06:02.078Z,77.70
2023-01-01T01:11:08.665Z,70.97
2023-01-01T01:16:13.573Z,65.80
2023-01-01T01:21:16.902Z,62.80
2023-01-01T01:26:23.747Z,56.05
2023-01-01T01:31:28.693Z,52.83
2023-01-01T01:36:30.285Z,50.53
2023-01-01T01:41:31.619Z,44.72
2023-01-01T01:46:36.665Z,29.60
2023-01-01T01:51:40.589Z,19.77
2023-01-01T01:56:50.948Z,17.30
2023-01-01T02:01:52.970Z,15.40
2023-01-01T02:06:55.685Z,14.80
2023-01-01T02:11:58.752Z,13.63
2023-01-01T02:17:09.081Z,15.55
2023-01-01T02:22:48.787Z,17.75
2023-01-01T02:28:08.847Z,21.23
2023-01-01T02:33:16.223Z,21.98
2023-01-01T02:43:25.385Z,21.73
2023-01-01T02:48:40.477Z,22.60
2023-01-01T02:53:55.773Z,24.02
2023-01-01T02:59:33.518Z,26.15
2023-01-01T03:04:55.213Z,26.15
2023-01-01T03:10:07.473Z,28.02
2023-01-01T03:15:36.284Z,28.75
2023-01-01T03:20:42.357Z,25.70
2023-01-01T03:25:48.922Z,24.40
2023-01-01T03:30:52.563Z,23.47
2023-01-01T03:36:05.572Z,21.73
2023-01-01T03:41:35.635Z,21.77
2023-01-01T03:46:37.668Z,20.50
2023-01-01T03:52:15.322Z,18.45
2023-01-01T03:57:47.815Z,18.55
2023-01-01T04:02:52.070Z,17.73
2023-01-01T04:07:54.255Z,18.17
2023-01-01T04:12:57.579Z,18.08
2023-01-01T04:17:59.120Z,17.25
2023-01-01T04:23:01.673Z,16.55
2023-01-01T04:28:05.865Z,17.63
2023-01-01T04:33:07.208Z,16.17
2023-01-01T04:38:13.126Z,16.30
2023-01-01T04:43:14.442Z,14.77
2023-01-01T04:48:15.815Z,14.60
2023-01-01T04:53:17.156Z,12.98
2023-01-01T04:58:18.575Z,12.70
2023-01-01T05:03:19.907Z,14.73
2023-01-01T05:08:21.224Z,15.13
2023-01-01T05:13:22.588Z,13.15
2023-01-01T05:18:23.946Z,15.85
2023-01-01T05:23:25.308Z,12.27
2023-01-01T05:28:27.153Z,12.73
2023-01-01T05:33:28.464Z,13.23
2023-01-01T05:38:29.827Z,12.85
2023-01-01T05:43:31.152Z,11.82
2023-01-01T05:48:32.876Z,11.40
2023-01-01T05:53:35.072Z,11.70
2023-01-01T05:58:36.782Z,12.68
2023-01-01T06:03:38.125Z,10.80
2023-01-01T06:08:40.321Z,11.88
2023-01-01T06:13:41.635Z,11.85
2023-01-01T06:18:43.053Z,11.88
2023-01-01T06:23:44.734Z,11.85
2023-01-01T06:28:46.745Z,12.48
2023-01-01T06:33:48.984Z,12.82
2023-01-01T06:38:52.926Z,12.20
2023-01-01T06:43:56.068Z,14.90
2023-01-01T06:49:00.229Z,14.70
2023-01-01T06:54:03.742Z,13.75
2023-01-01T06:59:05.973Z,13.40
2023-01-01T07:04:11.061Z,14.63
2023-01-01T07:09:12.501Z,14.57
2023-01-01T07:14:13.917Z,13.80
2023-01-01T07:19:15.469Z,13.15
2023-01-01T07:24:17.187Z,11.90
2023-01-01T07:29:18.605Z,13.80
2023-01-01T07:34:20.084Z,13.50
2023-01-01T07:39:21.453Z,13.15
2023-01-01T07:44:22.806Z,12.63
2023-01-01T07:49:24.176Z,12.55
2023-01-01T07:54:25.569Z,12.00
2023-01-01T07:59:26.899Z,11.10
2023-01-01T08:04:28.261Z,12.60
2023-01-01T08:09:29.579Z,11.45
2023-01-01T08:14:30.931Z,12.55
2023-01-01T08:19:32.275Z,12.82
2023-01-01T08:24:33.618Z,12.63
2023-01-01T08:29:34.937Z,11.70
2023-01-01T08:34:36.400Z,11.70
2023-01-01T08:39:37.715Z,11.90
2023-01-01T08:44:39.033Z,12.25
2023-01-01T08:49:40.421Z,11.45
2023-01-01T08:54:41.848Z,7.88
2023-01-01T08:59:43.298Z,7.20
2023-01-01T09:04:44.665Z,4.60
2023-01-01T09:09:46.084Z,4.15
2023-01-01T09:14:48.018Z,3.35
2023-01-01T09:19:49.336Z,2.90
2023-01-01T09:24:50.672Z,3.00
2023-01-01T09:29:52.022Z,2.00
2023-01-01T09:34:53.412Z,2.15
2023-01-01T09:39:54.769Z,2.10
2023-01-01T09:45:20.986Z,1.58
2023-01-01T09:50:27.939Z,1.95
2023-01-01T09:56:05.163Z,1.70
2023-01-01T10:01:25.160Z,1.90
2023-01-01T10:06:33.655Z,2.42
2023-01-01T10:11:59.447Z,2.00
2023-01-01T10:17:06.497Z,2.20
2023-01-01T10:22:15.252Z,2.10
2023-01-01T10:27:39.961Z,2.03
2023-01-01T10:32:43.295Z,1.95
2023-01-01T10:37:45.039Z,2.28
2023-01-01T10:42:50.027Z,2.10
2023-01-01T10:48:15.067Z,1.92
2023-01-01T10:53:52.872Z,2.05
2023-01-01T10:58:56.525Z,2.35
2023-01-01T11:04:21.101Z,1.50
2023-01-01T11:09:26.539Z,1.40
2023-01-01T11:14:33.617Z,2.17
2023-01-01T11:19:37.516Z,1.17
2023-01-01T11:24:39.342Z,1.27
2023-01-01T11:29:40.735Z,1.15
2023-01-01T11:34:44.003Z,0.80
2023-01-01T11:39:48.920Z,1.15
2023-01-01T11:44:58.217Z,1.90
2023-01-01T11:50:08.904Z,1.30
2023-01-01T11:55:42.272Z,0.98
2023-01-01T12:00:44.115Z,1.25
2023-01-01T12:05:59.933Z,3.03
2023-01-01T12:11:39.553Z,1.25
2023-01-01T12:16:59.807Z,0.90
2023-01-01T12:22:01.229Z,1.02
2023-01-01T12:27:16.335Z,1.17
2023-01-01T12:32:49.857Z,1.48
2023-01-01T12:38:23.286Z,1.20
2023-01-01T12:43:43.027Z,1.40
2023-01-01T12:49:05.975Z,1.00
2023-01-01T12:54:39.596Z,0.90
2023-01-01T12:59:47.893Z,0.95
2023-01-01T13:04:53.867Z,0.80
2023-01-01T13:09:56.413Z,1.08
2023-01-01T13:14:57.767Z,1.40
2023-01-01T13:20:16.207Z,0.77
2023-01-01T13:25:17.564Z,2.00
2023-01-01T13:30:37.304Z,1.45
2023-01-01T13:35:38.944Z,1.05
2023-01-01T13:40:50.903Z,1.60
2023-01-01T13:46:13.088Z,1.30
2023-01-01T13:52:07.610Z,1.52
2023-01-01T13:57:28.082Z,0.88
2023-01-01T14:02:36.221Z,1.67
2023-01-01T14:07:52.696Z,1.15
2023-01-01T14:12:57.950Z,0.70
2023-01-01T14:18:02.723Z,1.38
2023-01-01T14:23:11.807Z,1.58
2023-01-01T14:28:22.170Z,1.10
2023-01-01T14:33:29.422Z,1.63
2023-01-01T14:43:37.038Z,1.55
2023-01-01T14:48:43.552Z,1.30
2023-01-01T14:53:48.094Z,1.60
2023-01-01T14:58:49.460Z,0.90
2023-01-01T15:04:05.392Z,1.25
2023-01-01T15:09:06.830Z,1.65
2023-01-01T15:14:31.020Z,1.20
2023-01-01T15:19:32.591Z,1.13
2023-01-01T15:24:37.390Z,1.17
2023-01-01T15:29:47.336Z,1.70
2023-01-01T15:34:54.709Z,1.20
2023-01-01T15:39:59.316Z,1.30
2023-01-01T15:45:24.969Z,1.50
2023-01-01T15:50:35.616Z,1.60
2023-01-01T15:55:44.123Z,1.25
2023-01-01T16:00:58.491Z,1.55
2023-01-01T16:06:00.550Z,1.33
2023-01-01T16:11:01.931Z,1.65
2023-01-01T16:16:04.007Z,2.70
2023-01-01T16:21:05.793Z,3.28
2023-01-01T16:26:07.272Z,5.50
2023-01-01T16:31:14.706Z,2.85
2023-01-01T16:36:16.139Z,2.60
2023-01-01T16:41:18.172Z,2.25
2023-01-01T16:46:19.529Z,2.30
2023-01-01T16:51:24.138Z,3.13
2023-01-01T16:56:25.564Z,3.10
2023-01-01T17:01:27.196Z,3.80
2023-01-01T17:06:28.781Z,3.72
2023-01-01T17:11:30.169Z,4.20
2023-01-01T17:16:38.762Z,3.45
2023-01-01T17:21:41.032Z,3.28
2023-01-01T17:26:42.451Z,2.70
2023-01-01T17:31:44.088Z,2.45
2023-01-01T17:36:45.916Z,3.13
2023-01-01T17:41:47.345Z,4.97
2023-01-01T17:46:48.854Z,3.22
2023-01-01T17:51:50.385Z,4.68
2023-01-01T17:56:53.079Z,5.65
2023-01-01T18:01:54.526Z,8.35
2023-01-01T18:07:06.012Z,11.63
2023-01-01T18:12:07.692Z,10.63
2023-01-01T18:17:09.182Z,8.68
2023-01-01T18:22:10.740Z,8.55
2023-01-01T18:27:12.158Z,9.70
2023-01-01T18:32:13.533Z,8.95
2023-01-01T18:37:14.916Z,11.75
2023-01-01T18:42:39.635Z,10.85
2023-01-01T18:47:41.158Z,11.65
2023-01-01T18:52:42.576Z,11.70
2023-01-01T18:57:49.417Z,18.58
2023-01-01T19:03:28.247Z,17.40
2023-01-01T19:08:30.151Z,16.95
2023-01-01T19:13:41.673Z,18.17
2023-01-01T19:18:45.391Z,11.10
2023-01-01T19:23:55.316Z,9.93
2023-01-01T19:29:02.873Z,5.97
2023-01-01T19:39:07.252Z,12.02
2023-01-01T19:44:10.492Z,7.03
2023-01-01T19:49:12.776Z,6.22
2023-01-01T19:54:14.413Z,11.77
2023-01-01T19:59:15.914Z,7.78
2023-01-01T20:04:17.405Z,7.38
2023-01-01T20:09:18.926Z,8.77
2023-01-01T20:14:20.272Z,10.70
2023-01-01T20:19:21.612Z,10.18
2023-01-01T20:24:23.010Z,9.18
2023-01-01T20:29:24.452Z,9.15
2023-01-01T20:34:26.746Z,9.73
2023-01-01T20:39:28.571Z,8.90
2023-01-01T20:44:30.235Z,8.75
2023-01-01T20:49:31.645Z,8.73
2023-01-01T20:54:33.160Z,8.65
2023-01-01T20:59:36.561Z,10.52
2023-01-01T21:04:40.318Z,10.35
2023-01-01T21:09:42.049Z,10.05
2023-01-01T21:14:43.418Z,11.23
2023-01-01T21:19:44.960Z,10.13
2023-01-01T21:24:49.802Z,10.88
2023-01-01T21:29:57.400Z,9.73
2023-01-01T21:34:58.824Z,12.93
2023-01-01T21:40:00.290Z,10.20
2023-01-01T21:45:02.019Z,11.65
2023-01-01T21:50:18.941Z,10.90
2023-01-01T21:55:50.145Z,10.83
2023-01-01T22:00:51.548Z,11.48
2023-01-01T22:05:58.975Z,9.68
2023-01-01T22:11:01.347Z,9.93
2023-01-01T22:16:03.091Z,9.68
2023-01-01T22:21:04.656Z,10.68
2023-01-01T22:26:17.294Z,10.02
2023-01-01T22:31:29.326Z,9.93
2023-01-01T22:36:34.696Z,11.20
2023-01-01T22:41:36.035Z,11.50
2023-01-01T22:46:40.076Z,10.48
2023-01-01T22:51:43.637Z,10.25
2023-01-01T22:56:44.973Z,9.93
2023-01-01T23:01:46.643Z,10.13
2023-01-01T23:06:48.056Z,10.25
2023-01-01T23:11:49.525Z,8.70
2023-01-01T23:16:50.919Z,8.30
2023-01-01T23:21:52.401Z,9.30
2023-01-01T23:26:53.804Z,7.95
2023-01-01T23:31:55.251Z,8.98
2023-01-01T23:36:57.726Z,13.77
2023-01-01T23:41:59.172Z,11.00
2023-01-01T23:47:00.966Z,11.00
2023-01-01T23:52:03.362Z,11.45
2023-01-01T23:57:05.363Z,10.43
